Time;durP1;ratioP1;P1;durP2;ratioP2;P2;SDS_P1;SDS_P2;PMS_P1;PMS_P2;Temp;Humidity;BMP_temperature;BMP_pressure;BME280_temperature;BME280_humidity;BME280_pressure;Samples;Min_cycle;Max_cycle;Signal;HPM_P1;HPM_P2
2021/10/30 00:02:12;;;;;;;7.60;6.20;;;13.30;81.00;;;;;;5100275;28;20176;-82
2021/10/30 00:04:37;;;;;;;10.20;6.47;;;13.30;81.30;;;;;;5101568;28;20238;-82
2021/10/30 00:07:03;;;;;;;9.37;6.60;;;13.30;81.30;;;;;;5099580;28;20665;-82
2021/10/30 00:09:29;;;;;;;12.60;7.73;;;13.30;81.10;;;;;;5097942;28;20666;-82
2021/10/30 00:11:55;;;;;;;11.30;6.87;;;13.30;81.10;;;;;;5097558;28;20199;-82
2021/10/30 00:14:20;;;;;;;8.17;6.40;;;13.30;81.20;;;;;;5103739;28;20549;-82
2021/10/30 00:16:46;;;;;;;8.17;7.10;;;13.20;81.30;;;;;;5074851;28;20221;-82
2021/10/30 00:19:13;;;;;;;7.80;6.50;;;13.10;81.50;;;;;;5076175;28;20411;-82
2021/10/30 00:21:38;;;;;;;7.88;5.95;;;13.10;81.90;;;;;;5074942;28;20419;-82
2021/10/30 00:24:04;;;;;;;8.10;6.27;;;13.10;82.00;;;;;;5075527;28;20573;-82
2021/10/30 00:26:30;;;;;;;9.00;6.90;;;13.10;82.20;;;;;;5075074;28;20423;-82
2021/10/30 00:28:56;;;;;;;9.07;7.30;;;13.00;82.20;;;;;;5077531;28;21060;-81
2021/10/30 00:31:22;;;;;;;8.23;6.60;;;13.10;82.60;;;;;;5075267;28;20310;-82
2021/10/30 00:33:47;;;;;;;8.20;6.97;;;13.00;82.60;;;;;;5074785;28;20210;-82
2021/10/30 00:36:13;;;;;;;8.07;7.03;;;13.00;83.00;;;;;;5085473;28;20667;-81
2021/10/30 00:38:39;;;;;;;10.00;6.47;;;13.00;83.20;;;;;;5097102;28;20171;-82
2021/10/30 00:41:06;;;;;;;9.23;6.77;;;13.00;83.40;;;;;;5098255;28;20413;-83
2021/10/30 00:43:33;;;;;;;9.98;7.53;;;13.10;83.60;;;;;;5091642;28;20884;-82
2021/10/30 00:45:59;;;;;;;7.70;6.30;;;13.00;83.60;;;;;;5079512;28;20533;-82
2021/10/30 00:48:25;;;;;;;8.35;6.78;;;13.00;83.80;;;;;;5080253;28;20168;-82
2021/10/30 00:50:51;;;;;;;9.10;7.20;;;13.00;84.00;;;;;;5078915;28;20195;-82
2021/10/30 00:53:17;;;;;;;9.55;7.07;;;12.90;84.10;;;;;;5076899;28;20693;-82
2021/10/30 00:55:44;;;;;;;8.75;7.10;;;12.90;84.30;;;;;;5076856;28;20268;-82
2021/10/30 00:58:13;;;;;;;8.57;7.25;;;12.90;84.60;;;;;;5079014;28;20662;-82
2021/10/30 01:00:39;;;;;;;10.23;7.50;;;12.90;84.70;;;;;;5084670;28;20192;-82
2021/10/30 01:03:06;;;;;;;9.67;7.70;;;12.90;84.80;;;;;;5083711;28;20529;-82
2021/10/30 01:05:36;;;;;;;10.27;7.75;;;12.80;84.90;;;;;;5077179;28;20831;-82
2021/10/30 01:08:02;;;;;;;12.82;7.97;;;12.90;85.20;;;;;;5076336;28;20185;-82
2021/10/30 01:10:28;;;;;;;12.63;8.70;;;12.70;85.60;;;;;;5076070;28;20235;-82
2021/10/30 01:12:53;;;;;;;12.10;7.77;;;12.70;86.10;;;;;;5098289;28;20228;-82
2021/10/30 01:15:19;;;;;;;10.87;8.53;;;12.80;86.30;;;;;;5087259;28;20245;-82
2021/10/30 01:17:45;;;;;;;12.27;7.53;;;12.90;86.50;;;;;;5089008;28;20259;-82
2021/10/30 01:20:26;;;;;;;11.47;9.10;;;12.90;86.20;;;;;;5101300;28;20202;-82
2021/10/30 01:22:57;;;;;;;10.50;9.30;;;13.00;86.20;;;;;;5101230;28;20222;-82
2021/10/30 01:25:23;;;;;;;9.43;8.07;;;13.10;86.20;;;;;;5101062;28;20206;-82
2021/10/30 01:27:50;;;;;;;9.48;8.02;;;13.10;85.90;;;;;;5085773;28;20184;-82
2021/10/30 01:30:17;;;;;;;8.93;7.70;;;13.10;85.90;;;;;;5080907;28;20176;-82
2021/10/30 01:33:05;;;;;;;10.07;7.93;;;13.10;85.80;;;;;;5080756;28;20230;-82
2021/10/30 01:35:37;;;;;;;12.48;8.27;;;13.20;85.70;;;;;;5086039;28;20241;-82
2021/10/30 01:38:03;;;;;;;11.98;9.35;;;13.20;85.60;;;;;;5114570;28;20195;-82
2021/10/30 01:40:31;;;;;;;13.98;8.02;;;13.20;85.50;;;;;;5112522;28;20186;-82
2021/10/30 01:43:03;;;;;;;12.20;9.27;;;13.30;85.50;;;;;;5095358;28;20192;-83
2021/10/30 01:45:30;;;;;;;14.40;9.70;;;13.40;85.10;;;;;;5083405;28;20181;-82
2021/10/30 01:47:56;;;;;;;10.27;8.05;;;13.30;84.80;;;;;;5089685;28;20169;-82
2021/10/30 01:50:23;;;;;;;12.88;9.13;;;13.20;84.90;;;;;;5086757;28;20210;-82
2021/10/30 01:52:50;;;;;;;11.32;8.18;;;13.40;85.10;;;;;;5082230;28;20264;-82
2021/10/30 01:55:18;;;;;;;12.45;8.20;;;13.50;84.80;;;;;;5081638;28;20196;-82
2021/10/30 01:57:45;;;;;;;10.00;8.30;;;13.50;84.60;;;;;;5098099;28;20235;-82
2021/10/30 02:00:11;;;;;;;11.30;8.02;;;13.60;84.60;;;;;;5098296;28;20211;-82
2021/10/30 02:02:37;;;;;;;13.65;9.70;;;13.50;84.40;;;;;;5096832;28;20218;-82
2021/10/30 02:05:04;;;;;;;11.67;9.17;;;13.40;85.10;;;;;;5095707;28;20204;-81
2021/10/30 02:07:30;;;;;;;10.85;8.68;;;13.40;84.50;;;;;;5079148;28;20426;-82
2021/10/30 02:09:56;;;;;;;11.50;8.68;;;13.50;84.50;;;;;;5090724;28;20177;-82
2021/10/30 02:12:21;;;;;;;10.82;8.10;;;13.50;84.50;;;;;;5087596;28;20668;-82
2021/10/30 02:14:47;;;;;;;11.30;8.83;;;13.30;84.60;;;;;;5115666;28;20311;-82
2021/10/30 02:17:14;;;;;;;11.03;8.53;;;13.30;85.00;;;;;;5103050;28;20177;-82
2021/10/30 02:19:39;;;;;;;15.68;9.20;;;13.50;85.20;;;;;;5075394;28;20703;-82
2021/10/30 02:22:05;;;;;;;15.33;9.57;;;13.50;84.70;;;;;;5076702;28;20253;-82
2021/10/30 02:24:33;;;;;;;17.90;8.97;;;13.20;84.60;;;;;;5081262;28;20206;-83
2021/10/30 02:26:58;;;;;;;13.95;9.45;;;13.10;85.40;;;;;;5095092;28;20433;-83
2021/10/30 02:29:24;;;;;;;15.53;9.17;;;13.20;85.70;;;;;;5094077;28;20180;-82
2021/10/30 02:31:50;;;;;;;15.37;10.10;;;13.40;85.80;;;;;;5095216;28;20599;-83
2021/10/30 02:34:15;;;;;;;10.63;8.70;;;13.30;85.40;;;;;;5095732;28;20231;-83
2021/10/30 02:36:41;;;;;;;12.93;8.97;;;13.30;85.50;;;;;;5088031;28;20604;-82
2021/10/30 02:39:10;;;;;;;14.83;9.40;;;13.30;85.50;;;;;;5093722;28;20179;-83
2021/10/30 02:41:36;;;;;;;12.73;9.10;;;13.40;85.60;;;;;;5102749;28;20173;-82
2021/10/30 02:44:02;;;;;;;10.65;8.40;;;13.50;85.80;;;;;;5102912;28;20275;-82
2021/10/30 02:46:28;;;;;;;13.83;9.40;;;13.40;85.90;;;;;;5089778;28;20269;-82
2021/10/30 02:48:54;;;;;;;11.20;8.77;;;13.30;86.20;;;;;;5082206;28;20183;-82
2021/10/30 02:51:19;;;;;;;11.15;8.55;;;13.40;86.60;;;;;;5081258;28;20429;-82
2021/10/30 02:53:45;;;;;;;12.97;8.70;;;13.30;86.90;;;;;;5074468;28;20656;-82
2021/10/30 02:56:11;;;;;;;15.80;10.00;;;13.40;87.20;;;;;;5073716;28;20176;-82
2021/10/30 02:58:37;;;;;;;11.73;8.73;;;13.40;87.30;;;;;;5058536;28;20185;-82
2021/10/30 03:01:03;;;;;;;14.07;8.80;;;13.30;87.50;;;;;;5076931;28;20833;-82
2021/10/30 03:03:28;;;;;;;13.97;9.07;;;13.10;87.80;;;;;;5073874;28;20197;-82
2021/10/30 03:05:54;;;;;;;14.40;9.33;;;13.10;88.30;;;;;;5074446;28;20484;-82
2021/10/30 03:08:20;;;;;;;10.90;9.48;;;13.00;88.70;;;;;;5074359;28;20180;-82
2021/10/30 03:10:46;;;;;;;10.57;9.30;;;13.10;89.20;;;;;;5073995;28;20555;-82
2021/10/30 03:13:11;;;;;;;11.23;8.60;;;13.10;89.50;;;;;;5097052;28;20448;-82
2021/10/30 03:15:37;;;;;;;14.87;9.57;;;13.20;89.60;;;;;;5089371;28;20183;-81
2021/10/30 03:18:03;;;;;;;12.60;10.03;;;13.10;89.70;;;;;;5096891;28;20194;-81
2021/10/30 03:20:29;;;;;;;13.07;10.27;;;13.10;90.70;;;;;;5095536;28;20191;-81
2021/10/30 03:22:55;;;;;;;13.30;10.90;;;13.10;90.30;;;;;;5096158;28;20413;-81
2021/10/30 03:25:20;;;;;;;12.70;10.40;;;13.20;90.50;;;;;;5097143;28;20199;-81
2021/10/30 03:27:46;;;;;;;15.77;10.40;;;13.10;90.60;;;;;;5095806;28;20184;-81
2021/10/30 03:30:12;;;;;;;16.40;10.93;;;13.30;90.90;;;;;;5078658;28;20585;-81
2021/10/30 03:32:38;;;;;;;18.05;10.35;;;13.30;90.90;;;;;;5075983;28;20577;-81
2021/10/30 03:35:04;;;;;;;15.83;11.20;;;13.20;90.80;;;;;;5074262;28;20203;-80
2021/10/30 03:37:32;;;;;;;12.68;10.60;;;13.10;91.20;;;;;;5076623;28;20226;-81
2021/10/30 03:39:58;;;;;;;15.70;11.15;;;13.20;91.40;;;;;;5076217;28;20173;-81
2021/10/30 03:42:24;;;;;;;15.40;11.87;;;13.30;91.50;;;;;;5074196;28;20272;-81
2021/10/30 03:44:50;;;;;;;18.40;12.77;;;13.30;91.50;;;;;;5076324;28;20197;-80
2021/10/30 03:47:16;;;;;;;21.30;12.25;;;13.30;91.50;;;;;;5074694;28;20176;-80
2021/10/30 03:49:42;;;;;;;17.73;11.38;;;13.30;91.60;;;;;;5074260;28;20660;-80
2021/10/30 03:52:08;;;;;;;18.00;11.73;;;13.20;91.50;;;;;;5074312;28;20230;-81
2021/10/30 03:54:33;;;;;;;20.73;12.53;;;13.20;91.80;;;;;;5074429;28;20474;-81
2021/10/30 03:56:59;;;;;;;20.80;13.03;;;13.20;91.90;;;;;;5076690;28;20254;-81
2021/10/30 03:59:25;;;;;;;15.73;11.60;;;13.00;92.10;;;;;;5073972;28;20185;-80
2021/10/30 04:01:51;;;;;;;16.77;11.63;;;13.00;92.40;;;;;;5075568;28;20172;-80
2021/10/30 04:04:17;;;;;;;18.42;12.95;;;12.90;92.60;;;;;;5074927;28;20200;-80
2021/10/30 04:06:42;;;;;;;20.33;14.40;;;13.00;93.00;;;;;;5075408;28;20172;-81
2021/10/30 04:09:09;;;;;;;20.80;13.27;;;13.10;93.20;;;;;;5073788;28;20229;-81
2021/10/30 04:11:34;;;;;;;20.58;12.82;;;13.10;93.20;;;;;;5074285;28;20188;-81
2021/10/30 04:14:00;;;;;;;24.13;13.67;;;13.20;93.10;;;;;;5103714;28;20613;-80
2021/10/30 04:16:26;;;;;;;16.73;12.60;;;13.00;92.90;;;;;;5094222;28;20654;-81
2021/10/30 04:18:52;;;;;;;23.47;15.30;;;13.00;93.20;;;;;;5094610;28;20175;-81
2021/10/30 04:21:17;;;;;;;22.17;13.30;;;13.10;93.30;;;;;;5094786;28;20174;-80
2021/10/30 04:23:43;;;;;;;23.30;13.37;;;13.00;93.20;;;;;;5093761;28;20441;-81
2021/10/30 04:26:09;;;;;;;20.17;13.00;;;13.00;93.30;;;;;;5094205;28;20222;-81
2021/10/30 04:28:35;;;;;;;21.77;14.00;;;13.00;93.30;;;;;;5074534;28;20183;-81
2021/10/30 04:31:08;;;;;;;21.40;13.53;;;13.00;93.50;;;;;;5075412;28;20181;-80
2021/10/30 04:33:36;;;;;;;20.73;14.75;;;13.00;93.50;;;;;;5074834;28;20197;-80
2021/10/30 04:36:03;;;;;;;21.08;13.63;;;13.00;93.50;;;;;;5074188;28;20176;-80
2021/10/30 04:38:29;;;;;;;21.52;12.57;;;12.90;93.70;;;;;;5075452;28;20173;-80
2021/10/30 04:40:56;;;;;;;18.30;12.73;;;12.80;93.90;;;;;;5075142;28;20184;-81
2021/10/30 04:43:21;;;;;;;23.63;14.00;;;12.80;94.10;;;;;;5073585;28;20434;-81
2021/10/30 04:45:47;;;;;;;27.10;12.60;;;12.90;94.30;;;;;;5075537;28;20177;-81
2021/10/30 04:48:13;;;;;;;18.07;12.00;;;12.90;94.30;;;;;;5074029;28;20242;-81
2021/10/30 04:50:40;;;;;;;24.37;14.93;;;12.90;94.40;;;;;;5097613;28;20247;-81
2021/10/30 04:53:07;;;;;;;18.90;13.30;;;12.80;94.30;;;;;;5118938;28;20241;-81
2021/10/30 04:55:33;;;;;;;19.70;14.13;;;12.70;95.20;;;;;;5109846;28;20183;-81
2021/10/30 04:57:58;;;;;;;23.27;13.10;;;12.70;94.80;;;;;;5061249;28;20180;-81
2021/10/30 05:00:24;;;;;;;19.13;13.90;;;12.70;95.00;;;;;;5079137;28;20165;-81
2021/10/30 05:02:51;;;;;;;19.08;13.90;;;12.80;95.00;;;;;;5080167;28;20168;-81
2021/10/30 05:05:17;;;;;;;25.23;12.55;;;12.80;95.10;;;;;;5075066;28;20203;-81
2021/10/30 05:07:43;;;;;;;22.20;12.87;;;12.90;95.10;;;;;;5098144;28;20176;-81
2021/10/30 05:10:09;;;;;;;18.93;13.30;;;12.70;95.00;;;;;;5099070;28;20172;-81
2021/10/30 05:12:35;;;;;;;21.30;12.90;;;12.70;95.10;;;;;;5104770;28;20802;-81
2021/10/30 05:15:00;;;;;;;18.50;12.77;;;12.70;95.40;;;;;;5117800;28;20195;-81
2021/10/30 05:17:26;;;;;;;23.35;14.77;;;12.80;95.40;;;;;;5117868;28;20479;-82
2021/10/30 05:19:52;;;;;;;19.50;11.50;;;12.80;95.30;;;;;;5109788;28;20184;-82
2021/10/30 05:22:18;;;;;;;25.40;14.00;;;12.80;95.30;;;;;;5097331;28;20259;-81
2021/10/30 05:24:43;;;;;;;19.23;12.77;;;12.80;95.20;;;;;;5102790;28;20294;-80
2021/10/30 05:27:09;;;;;;;16.60;12.53;;;12.90;95.20;;;;;;5099009;28;20179;-81
2021/10/30 05:29:37;;;;;;;20.50;13.43;;;12.90;95.10;;;;;;5102559;28;20665;-81
2021/10/30 05:32:03;;;;;;;18.95;12.90;;;12.90;95.10;;;;;;5099254;28;20172;-81
2021/10/30 05:34:30;;;;;;;24.40;13.30;;;13.00;94.90;;;;;;5088831;28;20247;-81
2021/10/30 05:36:56;;;;;;;21.77;14.00;;;12.90;94.60;;;;;;5097679;28;20255;-82
2021/10/30 05:39:23;;;;;;;18.43;13.47;;;13.00;94.60;;;;;;5081548;28;20243;-81
2021/10/30 05:41:49;;;;;;;20.00;12.68;;;12.90;94.50;;;;;;5094732;28;20566;-81
2021/10/30 05:44:15;;;;;;;17.20;11.85;;;12.80;94.50;;;;;;5096232;28;20583;-81
2021/10/30 05:46:42;;;;;;;18.58;13.10;;;12.80;94.60;;;;;;5098630;28;20175;-81
2021/10/30 05:49:09;;;;;;;19.17;12.82;;;12.90;94.70;;;;;;5101561;28;20180;-81
2021/10/30 05:51:35;;;;;;;18.33;12.63;;;12.90;94.60;;;;;;5103658;28;20176;-80
2021/10/30 05:54:02;;;;;;;17.50;12.00;;;13.00;94.50;;;;;;5105702;28;20222;-81
2021/10/30 05:56:28;;;;;;;22.00;13.20;;;13.00;94.30;;;;;;5099277;28;20184;-81
2021/10/30 05:58:53;;;;;;;21.05;13.40;;;13.00;94.10;;;;;;5085746;28;20264;-81
2021/10/30 06:01:19;;;;;;;17.93;12.60;;;12.90;94.10;;;;;;5093575;28;20168;-81
2021/10/30 06:03:45;;;;;;;20.70;12.50;;;12.80;94.10;;;;;;5089505;28;20211;-81
2021/10/30 06:06:11;;;;;;;17.70;12.30;;;12.90;94.30;;;;;;5097763;28;20183;-81
2021/10/30 06:08:36;;;;;;;25.70;14.27;;;12.90;94.40;;;;;;5097928;28;20180;-81
2021/10/30 06:11:02;;;;;;;20.97;13.20;;;12.90;94.40;;;;;;5098057;28;20195;-81
2021/10/30 06:13:28;;;;;;;22.10;14.10;;;12.90;94.50;;;;;;5098228;28;20207;-81
2021/10/30 06:15:53;;;;;;;18.37;12.27;;;12.90;94.50;;;;;;5100075;28;20183;-82
2021/10/30 06:18:19;;;;;;;18.80;13.87;;;12.80;94.40;;;;;;5098947;28;20182;-81
2021/10/30 06:20:46;;;;;;;20.70;14.00;;;13.00;94.60;;;;;;5098489;28;20172;-81
2021/10/30 06:23:13;;;;;;;22.30;13.25;;;12.90;94.50;;;;;;5078381;28;20799;-81
2021/10/30 06:25:41;;;;;;;20.70;14.60;;;12.90;94.50;;;;;;5078371;28;20708;-80
2021/10/30 06:28:07;;;;;;;20.48;13.32;;;12.80;94.50;;;;;;5088758;28;20199;-80
2021/10/30 06:30:33;;;;;;;25.77;13.33;;;13.00;94.60;;;;;;5097072;28;20180;-80
2021/10/30 06:32:59;;;;;;;23.90;15.25;;;13.10;94.60;;;;;;5091101;28;20449;-81
2021/10/30 06:35:25;;;;;;;17.07;12.50;;;12.90;94.30;;;;;;5098515;28;20190;-80
2021/10/30 06:37:50;;;;;;;19.30;12.83;;;13.00;94.30;;;;;;5099635;28;20176;-80
2021/10/30 06:40:17;;;;;;;18.70;12.90;;;12.80;94.20;;;;;;5103885;28;20429;-80
2021/10/30 06:42:43;;;;;;;18.60;12.63;;;12.90;94.50;;;;;;5106429;28;20454;-80
2021/10/30 06:45:10;;;;;;;23.40;13.77;;;12.90;94.70;;;;;;5102456;28;20218;-80
2021/10/30 06:47:36;;;;;;;20.38;13.18;;;13.00;94.60;;;;;;5089093;28;20191;-80
2021/10/30 06:50:04;;;;;;;18.40;12.57;;;12.90;94.50;;;;;;5083519;28;20639;-79
2021/10/30 06:52:36;;;;;;;18.77;14.00;;;13.00;94.50;;;;;;5098059;28;20532;-80
2021/10/30 06:55:09;;;;;;;25.45;13.00;;;13.00;94.50;;;;;;5096095;28;20199;-79
2021/10/30 06:57:36;;;;;;;22.67;14.77;;;13.00;94.30;;;;;;5099036;28;20262;-79
2021/10/30 07:00:06;;;;;;;17.92;13.48;;;13.10;94.40;;;;;;5098095;28;20213;-79
2021/10/30 07:02:32;;;;;;;16.48;13.85;;;13.00;94.10;;;;;;5092203;28;20230;-79
2021/10/30 07:04:59;;;;;;;18.97;13.70;;;13.10;94.20;;;;;;5079257;28;20208;-79
2021/10/30 07:07:25;;;;;;;25.73;13.45;;;13.00;94.00;;;;;;5085939;28;20425;-80
2021/10/30 07:09:58;;;;;;;18.60;12.75;;;13.00;94.10;;;;;;5081617;28;20552;-80
2021/10/30 07:12:24;;;;;;;25.77;13.77;;;13.10;94.10;;;;;;5090428;28;20228;-80
2021/10/30 07:14:50;;;;;;;16.35;13.45;;;13.00;94.00;;;;;;5118034;28;20211;-80
2021/10/30 07:17:16;;;;;;;18.77;13.40;;;13.10;94.00;;;;;;5110177;28;20179;-80
2021/10/30 07:19:41;;;;;;;21.50;12.53;;;13.00;93.90;;;;;;5097339;28;20179;-80
2021/10/30 07:22:07;;;;;;;18.40;12.40;;;13.00;93.90;;;;;;5097182;28;20190;-80
2021/10/30 07:24:33;;;;;;;20.30;13.03;;;13.10;94.00;;;;;;5097490;28;20238;-80
2021/10/30 07:26:59;;;;;;;24.07;12.23;;;13.00;93.90;;;;;;5075182;28;20204;-81
2021/10/30 07:29:24;;;;;;;25.10;13.30;;;13.00;93.90;;;;;;5092523;28;20226;-81
2021/10/30 07:31:50;;;;;;;20.40;12.87;;;13.10;94.10;;;;;;5080481;28;20262;-82
2021/10/30 07:34:16;;;;;;;17.63;12.80;;;13.20;94.10;;;;;;5095655;28;20212;-82
2021/10/30 07:36:41;;;;;;;14.07;12.10;;;13.20;94.00;;;;;;5097042;28;20640;-82
2021/10/30 07:39:07;;;;;;;14.30;11.60;;;13.30;93.90;;;;;;5089435;28;20176;-82
2021/10/30 07:41:33;;;;;;;15.83;10.80;;;13.30;93.70;;;;;;5075962;28;20226;-81
2021/10/30 07:43:58;;;;;;;18.53;12.43;;;13.30;93.60;;;;;;5076577;28;20204;-81
2021/10/30 07:46:25;;;;;;;14.13;11.47;;;13.30;93.60;;;;;;5076260;28;20176;-80
2021/10/30 07:48:52;;;;;;;16.15;11.82;;;13.20;93.30;;;;;;5078142;28;20188;-80
2021/10/30 07:51:19;;;;;;;14.45;11.80;;;13.30;93.50;;;;;;5076572;28;20184;-80
2021/10/30 07:53:45;;;;;;;15.18;11.05;;;13.30;93.50;;;;;;5076301;28;20223;-80
2021/10/30 07:56:11;;;;;;;16.40;11.80;;;13.10;93.50;;;;;;5079430;28;20208;-80
2021/10/30 07:58:37;;;;;;;15.23;10.43;;;13.20;93.80;;;;;;5078324;28;20180;-80
2021/10/30 08:01:03;;;;;;;14.93;11.10;;;13.20;93.90;;;;;;5078471;28;20644;-80
2021/10/30 08:03:32;;;;;;;14.93;10.23;;;13.10;94.20;;;;;;5076957;28;20219;-80
2021/10/30 08:05:57;;;;;;;13.48;10.80;;;13.00;94.50;;;;;;5077815;28;20447;-80
2021/10/30 08:08:23;;;;;;;16.20;9.87;;;13.00;94.70;;;;;;5078230;28;20211;-80
2021/10/30 08:10:49;;;;;;;17.47;10.03;;;13.00;94.80;;;;;;5078172;28;20199;-80
2021/10/30 08:13:15;;;;;;;17.00;9.87;;;13.10;95.00;;;;;;5102982;28;20199;-80
2021/10/30 08:15:41;;;;;;;14.25;9.57;;;13.10;94.90;;;;;;5112803;28;20202;-80
2021/10/30 08:18:07;;;;;;;12.37;9.00;;;13.00;94.90;;;;;;5076413;28;20187;-79
2021/10/30 08:20:34;;;;;;;10.50;8.60;;;13.20;95.00;;;;;;5077526;28;20410;-81
2021/10/30 08:23:00;;;;;;;12.23;9.00;;;13.20;94.90;;;;;;5076514;28;20177;-81
2021/10/30 08:25:25;;;;;;;12.13;10.13;;;13.10;94.90;;;;;;5076549;28;20186;-81
2021/10/30 08:27:52;;;;;;;9.47;8.33;;;13.10;94.90;;;;;;5087102;28;20417;-80
2021/10/30 08:30:18;;;;;;;12.60;9.18;;;13.10;95.10;;;;;;5094745;28;20172;-81
2021/10/30 08:32:45;;;;;;;12.67;9.77;;;13.10;95.10;;;;;;5088972;28;20249;-81
2021/10/30 08:35:11;;;;;;;11.30;8.30;;;13.00;95.10;;;;;;5074025;28;20445;-81
2021/10/30 08:37:38;;;;;;;11.33;9.53;;;13.00;95.20;;;;;;5078862;28;20184;-81
2021/10/30 08:40:05;;;;;;;12.90;8.75;;;13.20;95.30;;;;;;5100069;28;20406;-81
2021/10/30 08:42:33;;;;;;;11.95;9.05;;;13.10;95.30;;;;;;5098673;28;20221;-81
2021/10/30 08:44:59;;;;;;;13.77;9.15;;;13.10;95.30;;;;;;5094966;28;20241;-81
2021/10/30 08:47:26;;;;;;;7.57;6.80;;;13.20;95.40;;;;;;5100336;28;20662;-81
2021/10/30 08:49:54;;;;;;;9.93;7.93;;;13.10;95.40;;;;;;5100268;28;20210;-81
2021/10/30 08:52:20;;;;;;;7.20;6.50;;;13.00;95.30;;;;;;5100284;28;20550;-81
2021/10/30 08:54:45;;;;;;;11.37;7.60;;;13.00;95.90;;;;;;5098119;28;20200;-81
2021/10/30 08:57:11;;;;;;;11.13;7.00;;;13.10;95.70;;;;;;5095523;28;20172;-81
2021/10/30 08:59:39;;;;;;;8.20;6.97;;;13.10;95.70;;;;;;5081294;28;20183;-81
2021/10/30 09:02:05;;;;;;;9.13;7.43;;;13.10;95.70;;;;;;5061557;28;20795;-81
2021/10/30 09:04:31;;;;;;;9.68;7.40;;;13.10;95.80;;;;;;5093663;28;20260;-81
2021/10/30 09:07:00;;;;;;;8.13;6.73;;;13.20;95.70;;;;;;5099136;28;20636;-81
2021/10/30 09:09:31;;;;;;;9.70;6.93;;;13.20;95.50;;;;;;5105973;28;20413;-80
2021/10/30 09:12:03;;;;;;;10.52;6.95;;;13.20;95.50;;;;;;5114294;28;20195;-81
2021/10/30 09:14:42;;;;;;;6.65;6.05;;;13.20;95.40;;;;;;5098954;28;20200;-81
2021/10/30 09:17:19;;;;;;;12.15;7.38;;;13.20;95.40;;;;;;5092449;28;20183;-80
2021/10/30 09:19:50;;;;;;;9.52;5.60;;;13.20;95.40;;;;;;5093191;28;20183;-81
2021/10/30 09:22:18;;;;;;;7.95;6.72;;;13.20;95.40;;;;;;5086158;28;20172;-81
2021/10/30 09:25:07;;;;;;;6.78;5.75;;;13.30;95.50;;;;;;5076973;28;20273;-81
2021/10/30 09:27:45;;;;;;;7.90;6.30;;;13.30;95.50;;;;;;5076382;28;20248;-81
2021/10/30 09:30:13;;;;;;;6.95;6.10;;;13.20;95.40;;;;;;5077391;28;20616;-81
2021/10/30 09:32:40;;;;;;;9.00;7.90;;;13.20;95.50;;;;;;5076892;28;20211;-81
2021/10/30 09:35:10;;;;;;;11.20;7.40;;;13.30;95.50;;;;;;5075258;28;20212;-81
2021/10/30 09:37:36;;;;;;;10.50;7.40;;;13.30;95.50;;;;;;5077334;28;20258;-81
2021/10/30 09:40:18;;;;;;;6.55;5.95;;;13.30;95.40;;;;;;5078678;28;20187;-80
2021/10/30 09:42:47;;;;;;;9.15;5.70;;;13.30;95.50;;;;;;5063746;28;20596;-81
2021/10/30 09:45:13;;;;;;;9.15;6.15;;;13.30;95.40;;;;;;5080422;28;20205;-81
2021/10/30 09:47:44;;;;;;;6.40;5.40;;;13.40;95.50;;;;;;5079957;28;20176;-81
2021/10/30 09:50:26;;;;;;;6.10;5.20;;;13.40;95.50;;;;;;5079275;28;20222;-81
2021/10/30 09:52:54;;;;;;;7.05;5.50;;;13.40;95.50;;;;;;5083557;28;20195;-81
2021/10/30 09:55:29;;;;;;;9.45;7.43;;;13.50;95.50;;;;;;5063401;28;20210;-81
2021/10/30 09:58:13;;;;;;;17.48;7.78;;;13.50;95.10;;;;;;5080057;28;20558;-81
2021/10/30 10:00:38;;;;;;;12.07;7.72;;;13.40;95.00;;;;;;5078878;28;20184;-81
2021/10/30 10:03:04;;;;;;;15.03;6.47;;;13.40;95.90;;;;;;5065595;28;20179;-82
2021/10/30 10:05:36;;;;;;;7.03;5.72;;;13.40;95.30;;;;;;5101170;28;20259;-81
2021/10/30 10:08:02;;;;;;;6.20;5.53;;;13.40;95.40;;;;;;5100474;28;20172;-81
2021/10/30 10:10:28;;;;;;;7.20;6.00;;;13.50;95.40;;;;;;5082774;28;20190;-81
2021/10/30 10:12:53;;;;;;;5.70;4.50;;;13.60;95.30;;;;;;5108695;28;20954;-82
2021/10/30 10:15:22;;;;;;;5.57;5.07;;;13.60;95.10;;;;;;5105062;28;20196;-82
2021/10/30 10:17:49;;;;;;;6.82;4.80;;;13.70;95.10;;;;;;5068986;28;20184;-81
2021/10/30 10:20:15;;;;;;;6.18;5.18;;;13.70;94.90;;;;;;5079337;28;20531;-81
2021/10/30 10:22:42;;;;;;;13.13;5.47;;;13.70;95.40;;;;;;5080427;28;20652;-81
2021/10/30 10:25:31;;;;;;;6.05;5.45;;;13.70;94.50;;;;;;5081108;28;20234;-81
2021/10/30 10:28:21;;;;;;;7.80;5.53;;;13.80;94.60;;;;;;5079148;28;20173;-82
2021/10/30 10:30:55;;;;;;;8.23;5.05;;;13.80;94.50;;;;;;5080996;28;20161;-81
2021/10/30 10:33:21;;;;;;;6.88;4.90;;;13.90;94.50;;;;;;5079116;28;20208;-82
2021/10/30 10:36:19;;;;;;;6.63;5.10;;;13.90;94.20;;;;;;5083171;28;20650;-82
2021/10/30 10:38:57;;;;;;;7.32;4.53;;;13.90;94.10;;;;;;5080456;28;20666;-82
2021/10/30 10:41:43;;;;;;;5.88;4.40;;;13.80;93.90;;;;;;5078287;28;20636;-82
2021/10/30 10:44:16;;;;;;;4.68;3.90;;;13.80;93.70;;;;;;5064684;28;20288;-82
2021/10/30 10:46:49;;;;;;;6.03;4.93;;;13.90;94.00;;;;;;5078642;28;20244;-82
2021/10/30 10:49:39;;;;;;;5.22;4.15;;;13.90;93.80;;;;;;5077642;28;20169;-82
2021/10/30 10:55:07;;;;;;;4.25;3.65;;;13.90;93.80;;;;;;5092002;27;20573;-82
2021/10/30 10:57:45;;;;;;;4.53;4.10;;;14.00;93.70;;;;;;5082880;28;20176;-82
2021/10/30 11:00:16;;;;;;;5.32;4.00;;;14.00;93.60;;;;;;5097500;28;20240;-82
2021/10/30 11:02:53;;;;;;;4.10;3.70;;;14.10;93.70;;;;;;5100172;28;20305;-83
2021/10/30 11:05:22;;;;;;;4.20;3.67;;;14.20;93.50;;;;;;5077938;28;20224;-83
2021/10/30 11:07:51;;;;;;;6.75;4.32;;;14.30;93.10;;;;;;5077603;28;20647;-83
2021/10/30 11:10:23;;;;;;;8.02;4.75;;;14.40;92.90;;;;;;5077471;28;20191;-83
2021/10/30 11:13:10;;;;;;;7.45;4.00;;;14.40;92.60;;;;;;5098066;28;20250;-82
2021/10/30 11:15:43;;;;;;;4.30;3.92;;;14.40;91.90;;;;;;5119269;28;20171;-83
2021/10/30 11:21:07;;;;;;;11.93;4.70;;;14.50;91.90;;;;;;5117045;27;20185;-83
2021/10/30 11:23:48;;;;;;;3.53;3.22;;;14.60;91.50;;;;;;5117448;27;20203;-83
2021/10/30 11:26:34;;;;;;;6.13;4.00;;;14.60;90.80;;;;;;5124365;28;20171;-81
2021/10/30 11:29:07;;;;;;;4.93;4.43;;;14.70;90.80;;;;;;5123269;28;20193;-81
2021/10/30 11:31:33;;;;;;;3.05;2.75;;;14.80;90.40;;;;;;5120862;28;20191;-81
2021/10/30 11:34:02;;;;;;;2.87;2.67;;;14.70;89.70;;;;;;5100167;28;20632;-81
2021/10/30 11:36:28;;;;;;;8.48;3.00;;;14.70;89.70;;;;;;5120069;28;20421;-81
2021/10/30 11:38:56;;;;;;;3.13;2.80;;;14.70;89.50;;;;;;5122551;28;20172;-81
2021/10/30 11:41:28;;;;;;;3.85;3.25;;;14.70;89.30;;;;;;5122192;28;20699;-81
2021/10/30 11:44:14;;;;;;;3.42;3.13;;;14.70;89.10;;;;;;5121579;28;20232;-81
2021/10/30 11:46:44;;;;;;;9.15;2.67;;;14.80;89.30;;;;;;5123120;28;20175;-81
2021/10/30 11:49:22;;;;;;;3.10;2.80;;;14.80;88.90;;;;;;5124042;27;20175;-81
2021/10/30 11:51:48;;;;;;;4.63;2.97;;;15.00;89.00;;;;;;5102559;28;20223;-81
2021/10/30 11:54:15;;;;;;;2.67;2.47;;;15.00;88.40;;;;;;5123590;28;20218;-81
2021/10/30 11:56:44;;;;;;;6.97;2.53;;;15.00;88.10;;;;;;5125749;28;20179;-81
2021/10/30 11:59:10;;;;;;;2.65;2.42;;;14.90;88.20;;;;;;5124066;28;20187;-81
2021/10/30 12:01:48;;;;;;;2.60;2.40;;;14.90;88.60;;;;;;5123367;28;20179;-81
2021/10/30 12:04:20;;;;;;;2.97;2.25;;;14.90;88.60;;;;;;5110675;28;20199;-81
2021/10/30 12:06:55;;;;;;;3.00;2.15;;;15.00;88.20;;;;;;5105115;28;20558;-81
2021/10/30 12:09:33;;;;;;;2.63;2.42;;;15.10;88.00;;;;;;5105191;28;20172;-81
2021/10/30 12:12:20;;;;;;;3.10;2.30;;;15.10;87.30;;;;;;5106319;28;20199;-81
2021/10/30 12:14:57;;;;;;;1.80;1.70;;;15.20;87.20;;;;;;5124673;28;20203;-81
2021/10/30 12:17:28;;;;;;;2.65;2.30;;;15.20;86.80;;;;;;5123977;28;20174;-81
2021/10/30 12:20:08;;;;;;;1.83;1.73;;;15.30;86.60;;;;;;5121425;28;20171;-81
2021/10/30 12:22:44;;;;;;;1.98;1.88;;;15.20;86.00;;;;;;5122880;28;20159;-81
2021/10/30 12:25:12;;;;;;;2.80;2.60;;;15.20;85.80;;;;;;5121873;28;20202;-82
2021/10/30 12:27:52;;;;;;;2.28;2.08;;;15.30;85.80;;;;;;5124057;28;20186;-81
2021/10/30 12:30:21;;;;;;;2.45;2.25;;;15.20;85.70;;;;;;5121666;28;20178;-81
2021/10/30 12:32:49;;;;;;;2.15;2.05;;;15.20;85.70;;;;;;5120491;28;20175;-81
2021/10/30 12:35:26;;;;;;;2.35;1.90;;;15.10;85.80;;;;;;5123200;28;20203;-81
2021/10/30 12:38:19;;;;;;;2.10;1.90;;;15.10;85.70;;;;;;5121520;28;20204;-81
2021/10/30 12:40:47;;;;;;;2.60;2.40;;;15.00;86.20;;;;;;5121354;28;20539;-81
2021/10/30 12:43:18;;;;;;;5.90;2.30;;;15.00;87.10;;;;;;5127337;28;20250;-82
2021/10/30 12:45:44;;;;;;;5.90;2.95;;;15.00;87.40;;;;;;5122865;28;20175;-82
2021/10/30 12:48:15;;;;;;;2.93;2.37;;;14.90;87.40;;;;;;5124779;28;20175;-81